Praise, Kentucky
Current Conditions -  °F | °C
As of 3:55 PM on Friday 19 Dec 2014 (Local Time) from KPBX Reporting Station
Clear Clear  
Wind Chill: 34°   Ceiling: Unl
Heat Index: 34°   Visibility: 10mi
Dew Point: 24°   Wind: 0mph
Humidity: 68%   Direction: NA
Pressure: 30.18"   Gusts: NA
Location:  37.3089°N, 82.3418°W
Report Text: KPBX 192055Z AUTO 00000KT 10SM CLR 01/M04 A3018 RMK AO2 T00091045
Loading
Personal Weather Stations






























Interactive Weather Map New forecast layout! Learn more

10-Day Weather Forecast

Advertisements
Track Severe Weather on mobile